Key Field
KMEI : now visible

Airfield :











YOU CAN JOIN US ON...

 
LOGIN :

Register | Disclaimer

   EN    FR    IT 

 









Legend :    VFR   Marginal VFR   IFR   Intensive IFR   Very Intensive IFR
Visi :
Ceiling :
>= 8 km
>= 3000ft
5 to 8 km
1000 to 3000 ft
1500m to 5 km
500 to 1000 ft
800 to 1500m
200 to 500 ft
< 800m
< 200 ft
Symbols :   Thunderstorms  Fog  Heavy snow  Heavy precipitations  Wind > 20 kt






- Airport Elevation : 297 ft
- IATA code : MEI


KMEI - Key Field

CURRENT METAR :
  • 021258Z 34003KT 10SM FEW120 01/00 A3034 RMK AO2 SLP276 I1002 T00060000

EXPIRED METARs :
  • 021158Z 34004KT 10SM CLR 01/M01 A3034 RMK AO2 SLP275 I1002 I6/// T00061006 10017 20000 53010
  • 021058Z AUTO 31003KT 10SM CLR 01/M01 A3033 RMK AO2 SLP270 I1002 T00061006

TAF KMEI
Valid from the 02 at 12:00 until the 03 at 12:00 UTC


021123Z 0212/0312 VRB03KT P6SM FEW250
FM030500 17008KT P6SM BKN022
FM030600 17008KT P6SM BKN013
FM030700 18007KT P6SM OVC008
KZME FIR / North America



MET'MAP, your aeronautical weather chart ! - Copyright ORBIFLY December 2007 - Disclaimer

ORBIFLY MET'MAP TEAM :

Programming & Development : Alexandra Zaïnal
Original concept : Baudouin d'Aumeries
Technical & hardware support : Manuel Goepfert
Assistance : Marc-Olivier Méhu




SOURCES & CREDITS :

   NOAA       Earth
Advisory